createdAt,value
2022-08-25T00:00:23.460Z,20.45
2022-08-25T00:03:07.448Z,22.50
2022-08-25T00:05:37.327Z,15.95
2022-08-25T00:08:07.867Z,17.45
2022-08-25T00:10:40.558Z,18.83
2022-08-25T00:13:10.993Z,18.42
2022-08-25T00:15:39.944Z,19.45
2022-08-25T00:18:16.593Z,20.35
2022-08-25T00:20:49.820Z,18.33
2022-08-25T00:25:47.806Z,16.27
2022-08-25T00:28:19.391Z,14.65
2022-08-25T00:30:50.868Z,23.85
2022-08-25T00:33:21.249Z,17.30
2022-08-25T00:35:50.429Z,18.58
2022-08-25T00:38:19.024Z,22.35
2022-08-25T00:41:06.024Z,17.58
2022-08-25T00:43:45.934Z,23.38
2022-08-25T00:46:16.388Z,14.40
2022-08-25T00:48:47.059Z,18.98
2022-08-25T00:51:21.093Z,17.75
2022-08-25T00:53:50.218Z,19.67
2022-08-25T00:56:19.625Z,16.83
2022-08-25T00:58:53.453Z,24.52
2022-08-25T01:01:22.433Z,15.57
2022-08-25T01:03:51.383Z,19.63
2022-08-25T01:06:20.755Z,20.90
2022-08-25T01:08:49.922Z,19.90
2022-08-25T01:11:18.698Z,18.55
2022-08-25T01:13:54.127Z,14.18
2022-08-25T01:16:24.219Z,13.27
2022-08-25T01:18:57.901Z,12.43
2022-08-25T01:21:30.853Z,20.05
2022-08-25T01:24:02.091Z,22.27
2022-08-25T01:26:33.169Z,22.05
2022-08-25T01:29:25.710Z,13.02
2022-08-25T01:31:58.230Z,16.88
2022-08-25T01:34:28.820Z,15.25
2022-08-25T01:37:03.163Z,16.00
2022-08-25T01:39:34.228Z,17.95
2022-08-25T01:42:19.259Z,13.95
2022-08-25T01:44:49.330Z,17.88
2022-08-25T01:47:18.514Z,11.15
2022-08-25T01:49:47.355Z,17.98
2022-08-25T01:52:25.096Z,22.50
2022-08-25T01:54:54.544Z,12.15
2022-08-25T01:57:25.135Z,13.43
2022-08-25T01:59:53.857Z,18.60
2022-08-25T02:02:26.119Z,17.75
2022-08-25T02:04:55.448Z,13.02
2022-08-25T02:09:54.817Z,14.05
2022-08-25T02:12:23.443Z,12.70
2022-08-25T02:14:52.619Z,11.35
2022-08-25T02:17:21.358Z,11.90
2022-08-25T02:19:50.015Z,21.98
2022-08-25T02:22:19.394Z,22.33
2022-08-25T06:28:25.286Z,13.95
2022-08-25T06:31:01.241Z,11.30
2022-08-25T06:33:30.769Z,16.02
2022-08-25T06:36:14.815Z,13.30
2022-08-25T06:38:45.005Z,12.57
2022-08-25T06:41:14.997Z,20.88
2022-08-25T06:43:49.838Z,14.88
2022-08-25T06:46:35.642Z,17.52
2022-08-25T06:49:05.788Z,16.30
2022-08-25T06:51:35.902Z,17.00
2022-08-25T06:54:06.442Z,21.63
2022-08-25T06:56:36.011Z,11.05
2022-08-25T06:59:07.632Z,18.20
2022-08-25T07:01:36.528Z,15.52
2022-08-25T07:04:10.282Z,22.83
2022-08-25T07:06:39.265Z,11.70
2022-08-25T07:09:11.668Z,14.63
2022-08-25T07:11:41.828Z,13.75
2022-08-25T07:14:14.167Z,20.67
2022-08-25T07:16:48.590Z,15.20
2022-08-25T07:19:21.055Z,16.33
2022-08-25T07:21:52.398Z,11.65
2022-08-25T07:24:20.828Z,23.10
2022-08-25T07:26:49.266Z,16.80
2022-08-25T07:29:33.648Z,18.23
2022-08-25T07:32:52.066Z,17.13
2022-08-25T07:35:26.429Z,21.10
2022-08-25T07:38:09.175Z,21.35
2022-08-25T07:40:42.731Z,19.02
2022-08-25T07:43:12.325Z,21.30
2022-08-25T07:48:23.197Z,20.17
2022-08-25T07:50:53.850Z,16.73
2022-08-25T07:53:25.706Z,19.95
2022-08-25T07:55:54.357Z,16.25
2022-08-25T07:58:23.297Z,22.73
2022-08-25T08:00:53.732Z,14.13
2022-08-25T08:03:42.088Z,14.38
2022-08-25T08:06:34.880Z,14.20
2022-08-25T08:09:04.342Z,16.15
2022-08-25T08:11:37.272Z,17.77
2022-08-25T08:14:05.965Z,16.48
2022-08-25T08:16:36.128Z,21.30
2022-08-25T08:19:06.226Z,17.55
2022-08-25T08:21:37.179Z,13.15
2022-08-25T08:24:14.838Z,15.93
2022-08-25T08:26:59.127Z,14.18
2022-08-25T08:29:28.188Z,24.50
2022-08-25T08:32:10.095Z,20.20
2022-08-25T08:34:39.099Z,21.42
2022-08-25T08:37:40.012Z,19.85
2022-08-25T08:40:10.880Z,15.32
2022-08-25T08:42:53.116Z,21.05
2022-08-25T08:45:30.311Z,13.95
2022-08-25T08:48:31.830Z,21.15
2022-08-25T08:51:10.120Z,14.60
2022-08-25T08:53:52.984Z,19.30
2022-08-25T08:56:25.958Z,15.02
2022-08-25T08:59:06.231Z,20.98
2022-08-25T09:01:37.338Z,20.10
2022-08-25T09:04:14.617Z,25.52
2022-08-25T09:06:47.993Z,22.95
2022-08-25T09:09:26.827Z,24.23
2022-08-25T09:14:53.891Z,26.73
2022-08-25T09:20:18.850Z,21.08
2022-08-25T09:22:55.803Z,24.98
2022-08-25T09:28:21.892Z,25.13
2022-08-25T09:30:56.553Z,22.25
2022-08-25T09:33:27.587Z,21.05
2022-08-25T09:35:58.861Z,20.38
2022-08-25T09:38:32.007Z,25.55
2022-08-25T09:41:03.209Z,21.67
2022-08-25T09:43:34.626Z,18.98
2022-08-25T09:46:11.517Z,23.63
2022-08-25T09:48:55.713Z,21.42
2022-08-25T09:51:42.995Z,21.30
2022-08-25T09:54:21.286Z,19.17
2022-08-25T09:56:56.263Z,24.80
2022-08-25T09:59:34.460Z,27.85
2022-08-25T10:02:23.780Z,26.58
2022-08-25T10:04:53.557Z,26.40
2022-08-25T10:07:28.243Z,31.73
2022-08-25T10:10:01.805Z,29.85
2022-08-25T10:12:42.637Z,30.27
2022-08-25T10:15:29.113Z,26.00
2022-08-25T10:18:19.777Z,31.05
2022-08-25T10:21:04.353Z,27.00
2022-08-25T10:23:41.246Z,29.48
2022-08-25T10:26:17.095Z,24.92
2022-08-25T10:28:56.369Z,28.10
2022-08-25T10:31:34.715Z,32.10
2022-08-25T10:34:20.103Z,29.20
2022-08-25T10:37:11.727Z,23.92
2022-08-25T10:39:45.554Z,28.15
2022-08-25T10:42:35.348Z,26.00
2022-08-25T10:45:36.266Z,23.02
2022-08-25T10:48:20.313Z,24.67
2022-08-25T10:50:57.879Z,23.60
2022-08-25T10:53:31.203Z,20.42
2022-08-25T10:56:07.793Z,27.10
2022-08-25T10:58:57.014Z,15.68
2022-08-25T11:01:42.983Z,21.27
2022-08-25T11:04:18.297Z,31.52
2022-08-25T11:06:54.674Z,19.50
2022-08-25T11:09:28.624Z,21.05
2022-08-25T11:12:02.012Z,18.85
2022-08-25T11:14:37.166Z,19.63
2022-08-25T11:17:12.084Z,24.15
2022-08-25T11:19:45.484Z,26.77
2022-08-25T11:22:21.178Z,29.15
2022-08-25T11:24:59.514Z,28.10
2022-08-25T11:27:34.242Z,22.53
2022-08-25T11:30:08.610Z,28.67
2022-08-25T11:32:39.231Z,21.83
2022-08-25T11:35:13.486Z,20.38
2022-08-25T11:37:49.395Z,26.65
2022-08-25T11:40:37.975Z,26.50
2022-08-25T11:46:02.307Z,24.98
2022-08-25T11:48:43.719Z,18.08
2022-08-25T11:51:33.721Z,26.25
2022-08-25T11:54:21.575Z,20.95
2022-08-25T11:56:58.657Z,31.63
2022-08-25T12:00:08.740Z,24.45
2022-08-25T12:02:41.526Z,21.95
2022-08-25T12:05:14.233Z,20.30
2022-08-25T12:08:22.710Z,25.48
2022-08-25T12:10:58.952Z,25.13
2022-08-25T12:13:44.552Z,23.40
2022-08-25T12:16:44.580Z,20.52
2022-08-25T12:19:31.952Z,19.33
2022-08-25T12:22:39.063Z,22.98
2022-08-25T12:25:21.659Z,19.85
2022-08-25T12:28:09.089Z,24.35
2022-08-25T12:30:47.241Z,31.23
2022-08-25T12:33:34.150Z,20.52
2022-08-25T12:36:04.989Z,22.27
2022-08-25T12:38:42.477Z,22.38
2022-08-25T12:41:18.649Z,22.98
2022-08-25T12:43:49.765Z,23.40
2022-08-25T12:46:44.749Z,24.52
2022-08-25T12:49:31.489Z,25.67
2022-08-25T12:52:03.674Z,26.67
2022-08-25T12:54:43.822Z,22.80
2022-08-25T12:57:40.300Z,30.50
2022-08-25T13:00:18.592Z,24.20
2022-08-25T13:03:27.745Z,29.40
2022-08-25T13:06:23.080Z,27.70
2022-08-25T13:09:19.440Z,22.90
2022-08-25T13:11:54.946Z,26.87
2022-08-25T13:14:37.855Z,22.67
2022-08-25T13:17:07.067Z,30.02
2022-08-25T13:19:38.988Z,37.70
2022-08-25T13:22:16.152Z,32.50
2022-08-25T13:27:29.319Z,21.17
2022-08-25T13:30:03.904Z,21.95
2022-08-25T13:32:35.457Z,34.35
2022-08-25T13:35:17.500Z,29.45
2022-08-25T13:37:46.129Z,24.88
2022-08-25T13:40:17.661Z,27.92
2022-08-25T13:42:54.477Z,23.23
2022-08-25T13:45:30.030Z,34.58
2022-08-25T13:47:59.973Z,25.33
2022-08-25T13:50:34.979Z,23.08
2022-08-25T13:53:08.535Z,33.03
2022-08-25T13:55:52.230Z,32.35
2022-08-25T13:58:24.736Z,28.55
2022-08-25T14:01:23.194Z,28.38
2022-08-25T14:04:26.859Z,37.28
2022-08-25T14:07:13.582Z,25.30
2022-08-25T14:09:47.659Z,25.55
2022-08-25T14:12:33.186Z,26.52
2022-08-25T14:15:04.897Z,19.33
2022-08-25T14:17:39.031Z,30.33
2022-08-25T14:20:19.391Z,24.20
2022-08-25T14:22:47.953Z,23.60
2022-08-25T14:25:16.419Z,20.27
2022-08-25T14:28:06.822Z,23.95
2022-08-25T14:30:38.329Z,29.08
2022-08-25T14:33:07.415Z,26.67
2022-08-25T14:35:39.342Z,22.33
2022-08-25T14:38:11.528Z,33.05
2022-08-25T14:40:40.661Z,30.42
2022-08-25T14:48:10.865Z,24.75
2022-08-25T14:50:42.069Z,26.58
2022-08-25T14:53:12.693Z,29.85
2022-08-25T14:55:42.122Z,37.83
2022-08-25T14:58:10.334Z,24.57
2022-08-25T15:00:42.883Z,28.10
2022-08-25T15:03:15.571Z,28.38
2022-08-25T15:05:45.684Z,25.30
2022-08-25T15:08:33.356Z,31.23
2022-08-25T15:11:02.367Z,24.70
2022-08-25T15:13:37.222Z,23.50
2022-08-25T15:16:06.330Z,23.13
2022-08-25T15:18:34.533Z,32.40
2022-08-25T15:21:04.350Z,32.60
2022-08-25T15:23:32.831Z,26.88
2022-08-25T15:26:03.643Z,32.55
2022-08-25T15:28:33.902Z,38.47
2022-08-25T15:31:04.024Z,32.65
2022-08-25T15:33:32.503Z,26.90
2022-08-25T15:36:01.551Z,29.33
2022-08-25T15:38:32.492Z,36.63
2022-08-25T15:41:00.750Z,28.13
2022-08-25T15:43:29.096Z,29.15
2022-08-25T15:45:58.853Z,29.25
2022-08-25T15:48:41.154Z,31.87
2022-08-25T15:51:09.970Z,29.02
2022-08-25T15:53:40.912Z,37.85
2022-08-25T15:56:14.168Z,27.75
2022-08-25T15:58:46.390Z,26.98
2022-08-25T16:01:20.739Z,31.02
2022-08-25T16:03:49.915Z,25.55
2022-08-25T16:06:19.375Z,29.05
2022-08-25T16:08:49.330Z,25.58
2022-08-25T16:11:20.019Z,29.20
2022-08-25T16:13:51.370Z,28.70
2022-08-25T16:16:21.924Z,31.70
2022-08-25T16:18:50.913Z,31.90
2022-08-25T16:21:25.680Z,23.85
2022-08-25T16:24:05.463Z,22.65
2022-08-25T16:26:48.058Z,26.67
2022-08-25T16:29:17.059Z,19.52
2022-08-25T16:31:45.560Z,22.58
2022-08-25T16:34:22.277Z,22.45
2022-08-25T16:36:53.187Z,30.58
2022-08-25T16:39:24.072Z,29.95
2022-08-25T16:41:52.856Z,27.98
2022-08-25T16:44:22.994Z,21.30
2022-08-25T16:46:54.597Z,27.10
2022-08-25T16:49:24.381Z,20.42
2022-08-25T16:51:57.323Z,26.63
2022-08-25T16:54:45.647Z,27.05
2022-08-25T16:57:15.658Z,28.15
2022-08-25T16:59:44.066Z,30.52
2022-08-25T17:02:12.441Z,29.02
2022-08-25T17:04:41.128Z,27.95
2022-08-25T17:07:09.809Z,24.13
2022-08-25T17:09:39.417Z,30.25
2022-08-25T17:12:09.602Z,27.10
2022-08-25T17:14:38.616Z,29.88
2022-08-25T17:17:07.070Z,39.97
2022-08-25T17:19:35.531Z,47.70
2022-08-25T17:22:04.071Z,33.83
2022-08-25T17:24:34.891Z,26.65
2022-08-25T17:27:05.073Z,23.45
2022-08-25T17:29:35.043Z,47.67
2022-08-25T17:32:03.851Z,30.35
2022-08-25T17:34:32.880Z,23.98
2022-08-25T17:39:31.335Z,30.52
2022-08-25T17:42:00.909Z,32.63
2022-08-25T17:44:31.093Z,27.08
2022-08-25T17:46:59.667Z,32.33
2022-08-25T17:49:28.508Z,33.53
2022-08-25T17:51:56.959Z,25.23
2022-08-25T17:54:25.181Z,30.55
2022-08-25T17:56:54.666Z,36.00
2022-08-25T18:01:55.441Z,35.73
2022-08-25T18:04:24.367Z,31.60
2022-08-25T18:07:00.310Z,32.67
2022-08-25T18:09:29.264Z,32.85
2022-08-25T18:11:58.382Z,36.05
2022-08-25T18:16:57.282Z,31.63
2022-08-25T18:19:25.940Z,28.92
2022-08-25T18:21:54.438Z,29.42
2022-08-25T18:24:23.556Z,33.25
2022-08-25T18:29:21.174Z,34.20
2022-08-25T18:31:51.882Z,31.52
2022-08-25T18:34:24.255Z,23.95
2022-08-25T18:36:54.020Z,25.40
2022-08-25T18:39:39.657Z,30.65
2022-08-25T18:42:08.970Z,27.98
2022-08-25T18:44:37.428Z,29.90
2022-08-25T18:47:07.877Z,30.90
2022-08-25T18:49:38.557Z,31.90
2022-08-25T18:52:08.026Z,32.38
2022-08-25T18:54:36.638Z,36.53
2022-08-25T18:57:08.793Z,23.13
2022-08-25T18:59:37.893Z,40.53
2022-08-25T19:02:07.182Z,26.15
2022-08-25T19:04:35.527Z,39.65
2022-08-25T19:07:07.917Z,31.45
2022-08-25T19:09:36.982Z,32.08
2022-08-25T19:12:07.099Z,25.15
2022-08-25T19:14:40.567Z,30.65
2022-08-25T19:17:10.621Z,32.67
2022-08-25T19:19:38.893Z,37.90
2022-08-25T19:22:31.844Z,28.58
2022-08-25T19:24:57.935Z,30.13
2022-08-25T19:27:27.163Z,34.30
2022-08-25T19:29:56.308Z,35.65
2022-08-25T19:32:25.551Z,32.03
2022-08-25T19:34:55.529Z,33.35
2022-08-25T19:37:28.353Z,34.47
2022-08-25T19:39:57.351Z,36.30
2022-08-25T19:42:35.039Z,36.22
2022-08-25T19:45:08.192Z,31.85
2022-08-25T19:47:37.674Z,33.05
2022-08-25T19:50:07.189Z,32.72
2022-08-25T19:52:37.447Z,35.15
2022-08-25T19:55:06.264Z,34.97
2022-08-25T19:57:42.653Z,27.70
2022-08-25T20:00:15.088Z,28.95
2022-08-25T20:02:47.429Z,42.88
2022-08-25T20:05:23.798Z,31.42
2022-08-25T20:07:54.834Z,37.17
2022-08-25T20:10:25.146Z,31.80
2022-08-25T20:12:54.827Z,27.88
2022-08-25T20:15:23.737Z,38.20
2022-08-25T20:17:56.491Z,33.60
2022-08-25T20:20:24.996Z,37.38
2022-08-25T20:23:16.410Z,32.50
2022-08-25T20:25:44.828Z,36.03
2022-08-25T20:28:18.948Z,33.50
2022-08-25T20:30:47.508Z,37.35
2022-08-25T20:33:20.186Z,28.33
2022-08-25T20:35:53.221Z,33.53
2022-08-25T20:38:23.138Z,29.63
2022-08-25T20:40:51.451Z,34.65
2022-08-25T20:43:20.756Z,28.10
2022-08-25T20:45:53.367Z,36.60
2022-08-25T20:48:21.820Z,26.92
2022-08-25T20:50:57.924Z,33.08
2022-08-25T20:53:28.013Z,33.25
2022-08-25T20:55:56.466Z,26.88
2022-08-25T20:58:25.000Z,25.13
2022-08-25T21:00:55.280Z,29.95
2022-08-25T21:03:24.060Z,29.90
2022-08-25T21:05:54.140Z,31.00
2022-08-25T21:08:23.815Z,27.73
2022-08-25T21:10:55.337Z,31.25
2022-08-25T21:13:23.615Z,34.53
2022-08-25T21:15:51.815Z,29.95
2022-08-25T21:18:20.763Z,33.25
2022-08-25T21:20:48.936Z,35.85
2022-08-25T21:23:17.057Z,34.15
2022-08-25T21:25:45.741Z,30.03
2022-08-25T21:28:15.565Z,26.67
2022-08-25T21:30:47.132Z,34.13
2022-08-25T21:33:15.888Z,35.22
2022-08-25T21:35:44.146Z,33.58
2022-08-25T21:38:15.804Z,26.50
2022-08-25T21:40:44.980Z,25.10
2022-08-25T21:43:13.439Z,27.38
2022-08-25T21:45:46.664Z,24.40
2022-08-25T21:48:15.569Z,30.08
2022-08-25T21:50:43.723Z,25.08
2022-08-25T21:53:12.098Z,30.30
2022-08-25T21:55:44.120Z,28.27
2022-08-25T21:58:12.293Z,30.48
2022-08-25T22:00:44.718Z,36.90
2022-08-25T22:03:12.886Z,30.52
2022-08-25T22:05:41.373Z,33.30
2022-08-25T22:08:13.916Z,33.17
2022-08-25T22:10:44.765Z,29.13
2022-08-25T22:13:12.893Z,32.65
2022-08-25T22:15:42.767Z,39.23
2022-08-25T22:18:11.071Z,27.33
2022-08-25T22:20:39.311Z,35.08
2022-08-25T22:23:10.036Z,39.85
2022-08-25T22:25:49.157Z,31.45
2022-08-25T22:28:17.553Z,31.60
2022-08-25T22:30:47.136Z,39.95
2022-08-25T22:33:16.195Z,28.83
2022-08-25T22:35:45.022Z,31.45
2022-08-25T22:38:13.289Z,33.88
2022-08-25T22:40:42.329Z,38.35
2022-08-25T22:43:10.960Z,29.85
2022-08-25T22:45:39.925Z,33.83
2022-08-25T22:48:09.715Z,25.42
2022-08-25T22:50:38.438Z,31.38
2022-08-25T22:53:07.949Z,29.60
2022-08-25T22:55:43.204Z,35.15
2022-08-25T22:58:12.521Z,33.45
2022-08-25T23:00:41.606Z,34.28
2022-08-25T23:03:12.295Z,25.25
2022-08-25T23:05:41.172Z,26.77
2022-08-25T23:08:09.468Z,32.90
2022-08-25T23:10:37.701Z,36.72
2022-08-25T23:13:07.125Z,32.30
2022-08-25T23:15:35.588Z,29.50
2022-08-25T23:18:05.170Z,32.15
2022-08-25T23:20:56.804Z,29.08
2022-08-25T23:23:25.292Z,27.85
2022-08-25T23:25:54.073Z,30.38
2022-08-25T23:28:22.327Z,28.60
2022-08-25T23:30:59.063Z,25.42
2022-08-25T23:33:28.439Z,30.55
2022-08-25T23:36:02.206Z,31.52
2022-08-25T23:38:31.057Z,28.42
2022-08-25T23:40:59.708Z,27.02
2022-08-25T23:43:27.832Z,26.98
2022-08-25T23:45:56.813Z,26.58
2022-08-25T23:48:25.239Z,31.57
2022-08-25T23:50:54.107Z,23.30
2022-08-25T23:53:24.236Z,26.05
2022-08-25T23:55:53.173Z,26.15
2022-08-25T23:58:22.989Z,33.35
